createdAt,value
2023-05-14T00:00:00.641Z,8.2
2023-05-14T00:01:08.637Z,8.6
2023-05-14T00:02:01.084Z,8.6
2023-05-14T00:03:01.298Z,8.6
2023-05-14T00:04:01.169Z,8.7
2023-05-14T00:05:01.885Z,8.3
2023-05-14T00:06:11.849Z,8.5
2023-05-14T00:07:01.935Z,8.3
2023-05-14T00:08:01.491Z,8.3
2023-05-14T00:09:01.129Z,8.3
2023-05-14T00:10:01.145Z,8.4
2023-05-14T00:11:14.809Z,8.4
2023-05-14T00:12:01.115Z,8.2
2023-05-14T00:13:01.129Z,8.2
2023-05-14T00:14:01.027Z,8.3
2023-05-14T00:15:01.462Z,8.2
2023-05-14T00:16:01.202Z,8.2
2023-05-14T00:17:01.050Z,8.3
2023-05-14T00:18:01.096Z,8.2
2023-05-14T00:19:01.082Z,8.1
2023-05-14T00:20:01.765Z,8.1
2023-05-14T00:21:01.084Z,7.9
2023-05-14T00:22:01.424Z,7.8
2023-05-14T00:23:01.287Z,7.9
2023-05-14T00:24:01.929Z,7.7
2023-05-14T00:25:02.197Z,7.6
2023-05-14T00:26:01.548Z,7.3
2023-05-14T00:27:01.950Z,7.3
2023-05-14T00:28:01.228Z,7
2023-05-14T00:29:00.655Z,7.1
2023-05-14T00:30:00.637Z,7.2
2023-05-14T00:31:00.708Z,7.3
2023-05-14T00:32:00.334Z,7.3
2023-05-14T00:33:00.003Z,7.3
2023-05-14T00:33:59.628Z,7.4
2023-05-14T00:35:01.747Z,7.5
2023-05-14T00:36:01.281Z,7.7
2023-05-14T00:37:01.084Z,7.5
2023-05-14T00:38:01.099Z,7.8
2023-05-14T00:39:01.324Z,7.9
2023-05-14T00:40:01.506Z,7.9
2023-05-14T00:41:04.074Z,7.9
2023-05-14T00:42:01.776Z,8
2023-05-14T00:43:01.136Z,8.3
2023-05-14T00:44:01.145Z,8.2
2023-05-14T00:45:01.201Z,8.4
2023-05-14T00:46:01.038Z,8.3
2023-05-14T00:47:01.129Z,8.2
2023-05-14T00:48:01.177Z,8.2
2023-05-14T00:49:01.866Z,8.2
2023-05-14T00:50:01.060Z,8.2
2023-05-14T00:51:01.083Z,8.2
2023-05-14T00:52:00.769Z,8.2
2023-05-14T00:53:00.365Z,8.2
2023-05-14T00:53:59.959Z,8.1
2023-05-14T00:54:59.522Z,8.2
2023-05-14T00:56:01.124Z,8.2
2023-05-14T00:57:01.227Z,8
2023-05-14T00:58:01.222Z,8.2
2023-05-14T00:59:01.134Z,8.1
2023-05-14T01:00:01.133Z,7.9
2023-05-14T01:01:01.744Z,7.7
2023-05-14T01:02:01.041Z,7.6
2023-05-14T01:03:01.188Z,7.7
2023-05-14T01:04:01.156Z,7.4
2023-05-14T01:05:01.064Z,7
2023-05-14T01:06:01.171Z,7
2023-05-14T01:07:03.927Z,6.7
2023-05-14T01:08:01.995Z,6.7
2023-05-14T01:09:00.617Z,6.6
2023-05-14T01:09:59.863Z,6.5
2023-05-14T01:10:59.549Z,6.4
2023-05-14T01:12:01.202Z,6.4
2023-05-14T01:13:02.547Z,6.4
2023-05-14T01:14:01.525Z,6.3
2023-05-14T01:15:01.544Z,6.2
2023-05-14T01:16:01.593Z,6.1
2023-05-14T01:17:01.951Z,6.1
2023-05-14T01:18:01.435Z,5.8
2023-05-14T01:19:01.369Z,5.7
2023-05-14T01:20:01.071Z,5.6
2023-05-14T01:21:01.466Z,5.6
2023-05-14T01:22:02.336Z,5.7
2023-05-14T01:23:01.757Z,6.1
2023-05-14T01:24:02.018Z,6.2
2023-05-14T01:25:01.205Z,6.2
2023-05-14T01:26:01.102Z,6.2
2023-05-14T01:27:01.667Z,6
2023-05-14T01:28:01.117Z,5.9
2023-05-14T01:29:01.106Z,5.5
2023-05-14T01:30:01.163Z,5.9
2023-05-14T01:31:01.129Z,6.7
2023-05-14T01:32:05.643Z,6.9
2023-05-14T01:33:01.159Z,7.1
2023-05-14T01:34:01.253Z,7.1
2023-05-14T01:35:06.773Z,7.2
2023-05-14T01:36:01.858Z,7.3
2023-05-14T01:37:09.442Z,7.3
2023-05-14T01:38:01.744Z,7.4
2023-05-14T01:39:01.067Z,7.4
2023-05-14T01:40:01.810Z,7.3
2023-05-14T01:41:01.826Z,7.6
2023-05-14T01:42:11.405Z,7.8
2023-05-14T01:43:01.589Z,7.8
2023-05-14T01:44:02.390Z,7.9
2023-05-14T01:45:01.304Z,7.8
2023-05-14T01:46:01.174Z,8.1
2023-05-14T01:47:16.068Z,8.2
2023-05-14T01:48:01.556Z,8.1
2023-05-14T01:49:01.149Z,8.1
2023-05-14T01:50:01.025Z,8.1
2023-05-14T01:51:01.056Z,8.2
2023-05-14T01:52:01.050Z,8.1
2023-05-14T01:53:01.401Z,8.1
2023-05-14T01:54:01.117Z,7.7
2023-05-14T01:55:01.492Z,7.7
2023-05-14T01:56:01.218Z,7.6
2023-05-14T01:57:01.072Z,7.6
2023-05-14T01:58:01.098Z,7.4
2023-05-14T01:59:01.181Z,7.4
2023-05-14T02:00:01.111Z,7.6
2023-05-14T02:01:01.313Z,7.8
2023-05-14T02:02:01.261Z,7.8
2023-05-14T02:03:01.318Z,7.8
2023-05-14T02:04:02.158Z,8
2023-05-14T02:05:01.024Z,8.2
2023-05-14T02:06:01.036Z,8.2
2023-05-14T02:07:01.102Z,8.5
2023-05-14T02:08:01.076Z,8.4
2023-05-14T02:09:01.835Z,8.5
2023-05-14T02:10:01.910Z,8.8
2023-05-14T02:11:02.200Z,9.1
2023-05-14T02:12:00.792Z,9.1
2023-05-14T02:13:00.526Z,9.1
2023-05-14T02:14:00.794Z,9.1
2023-05-14T02:15:00.556Z,9.1
2023-05-14T02:16:00.250Z,9.1
2023-05-14T02:17:00.246Z,9.1
2023-05-14T02:17:59.894Z,9.1
2023-05-14T02:18:59.580Z,9.1
2023-05-14T02:20:02.350Z,8.7
2023-05-14T02:21:01.255Z,8.8
2023-05-14T02:22:02.538Z,8.6
2023-05-14T02:23:01.077Z,8.5
2023-05-14T02:24:01.063Z,8.5
2023-05-14T02:25:01.072Z,8.6
2023-05-14T02:26:01.318Z,8.6
2023-05-14T02:27:01.201Z,8.6
2023-05-14T02:28:01.101Z,8.7
2023-05-14T02:29:01.353Z,8.7
2023-05-14T02:30:02.295Z,8.5
2023-05-14T02:31:02.071Z,8.4
2023-05-14T02:32:01.128Z,8.4
2023-05-14T02:33:01.170Z,8.5
2023-05-14T02:34:01.109Z,8.3
2023-05-14T02:35:01.507Z,8.1
2023-05-14T02:36:01.029Z,8.2
2023-05-14T02:37:01.060Z,7.8
2023-05-14T02:38:01.033Z,7.7
2023-05-14T02:39:01.120Z,7.8
2023-05-14T02:40:01.064Z,7.8
2023-05-14T02:41:01.393Z,7.5
2023-05-14T02:42:01.028Z,7.2
2023-05-14T02:43:01.072Z,7.1
2023-05-14T02:44:01.090Z,7.1
2023-05-14T02:45:00.766Z,7
2023-05-14T02:46:00.474Z,7.3
2023-05-14T02:47:00.247Z,7.1
2023-05-14T02:48:00.002Z,7.2
2023-05-14T02:48:59.896Z,7
2023-05-14T02:49:59.687Z,7
2023-05-14T02:51:01.326Z,6.8
2023-05-14T02:52:01.129Z,6.9
2023-05-14T02:53:02.156Z,6.4
2023-05-14T02:54:00.497Z,6.3
2023-05-14T02:55:00.487Z,6.4
2023-05-14T02:56:00.152Z,6.7
2023-05-14T02:56:59.811Z,6.5
2023-05-14T02:58:01.842Z,6.7
2023-05-14T02:59:01.486Z,6.3
2023-05-14T03:00:01.494Z,6.4
2023-05-14T03:01:01.170Z,6.4
2023-05-14T03:02:02.066Z,6.1
2023-05-14T03:03:01.181Z,6
2023-05-14T03:04:01.224Z,5.6
2023-05-14T03:05:01.117Z,5.4
2023-05-14T03:06:01.132Z,5.4
2023-05-14T03:07:01.083Z,5.4
2023-05-14T03:08:01.037Z,5.4
2023-05-14T03:09:01.371Z,5.2
2023-05-14T03:10:02.096Z,4.9
2023-05-14T03:11:01.012Z,4.8
2023-05-14T03:12:01.031Z,4.6
2023-05-14T03:13:03.871Z,4.4
2023-05-14T03:14:01.088Z,4.4
2023-05-14T03:15:01.101Z,4.3
2023-05-14T03:16:01.137Z,4.3
2023-05-14T03:17:01.845Z,4.4
2023-05-14T03:18:06.420Z,4.5
2023-05-14T03:19:01.146Z,4.5
2023-05-14T03:20:01.125Z,4.7
2023-05-14T03:21:01.114Z,5.1
2023-05-14T03:22:00.849Z,5.6
2023-05-14T03:23:09.605Z,6
2023-05-14T03:24:03.113Z,6.3
2023-05-14T03:25:01.233Z,6.5
2023-05-14T03:26:01.212Z,6.8
2023-05-14T03:27:01.416Z,6.9
2023-05-14T03:28:12.555Z,6.8
2023-05-14T03:29:01.151Z,7
2023-05-14T03:30:01.079Z,7.2
2023-05-14T03:31:01.274Z,7.2
2023-05-14T03:32:01.098Z,7.5
2023-05-14T03:33:14.775Z,7.4
2023-05-14T03:34:01.230Z,7.4
2023-05-14T03:35:01.509Z,7.4
2023-05-14T03:36:01.513Z,7.6
2023-05-14T03:37:01.109Z,7.9
2023-05-14T03:38:01.022Z,7.8
2023-05-14T03:39:01.026Z,8
2023-05-14T03:40:01.032Z,7.8
2023-05-14T03:41:01.041Z,7.8
2023-05-14T03:42:01.791Z,7.9
2023-05-14T03:43:01.099Z,7.7
2023-05-14T03:44:01.528Z,8
2023-05-14T03:45:01.385Z,8
2023-05-14T03:46:02.143Z,7.9
2023-05-14T03:47:01.762Z,7.9
2023-05-14T03:48:01.859Z,7.9
2023-05-14T03:49:01.670Z,8.3
2023-05-14T03:50:01.663Z,8
2023-05-14T03:51:01.297Z,8.2
2023-05-14T03:52:01.100Z,8.1
2023-05-14T03:53:01.154Z,8
2023-05-14T03:54:01.437Z,8.1
2023-05-14T03:55:01.704Z,8.2
2023-05-14T03:56:01.045Z,8.2
2023-05-14T03:57:00.999Z,8.2
2023-05-14T03:58:01.058Z,8.2
2023-05-14T03:59:01.099Z,8.5
2023-05-14T04:00:01.137Z,8.4
2023-05-14T04:01:01.887Z,8.2
2023-05-14T04:02:02.061Z,8.3
2023-05-14T04:03:01.177Z,8.5
2023-05-14T04:04:00.799Z,8.5
2023-05-14T04:05:01.109Z,8.5
2023-05-14T04:06:01.114Z,8.5
2023-05-14T04:07:01.109Z,8.6
2023-05-14T04:08:01.134Z,8.5
2023-05-14T04:09:01.513Z,8.4
2023-05-14T04:10:04.179Z,8.3
2023-05-14T04:11:01.299Z,8.1
2023-05-14T04:12:01.305Z,8.2
2023-05-14T04:13:01.314Z,8.3
2023-05-14T04:14:01.058Z,8.2
2023-05-14T04:15:01.005Z,8.3
2023-05-14T04:16:01.095Z,8.3
2023-05-14T04:17:01.783Z,8.3
2023-05-14T04:18:01.152Z,8.4
2023-05-14T04:19:01.170Z,8.5
2023-05-14T04:20:01.095Z,8.3
2023-05-14T04:21:00.768Z,8.4
2023-05-14T04:22:00.449Z,8.4
2023-05-14T04:23:00.238Z,8.4
2023-05-14T04:23:59.886Z,8.5
2023-05-14T04:24:59.590Z,8.4
2023-05-14T04:26:01.701Z,8.5
2023-05-14T04:27:01.132Z,8.1
2023-05-14T04:28:01.045Z,8
2023-05-14T04:29:00.722Z,8.2
2023-05-14T04:30:00.427Z,7.8
2023-05-14T04:31:00.166Z,7.5
2023-05-14T04:32:00.158Z,7.5
2023-05-14T04:33:00.245Z,7.7
2023-05-14T04:33:59.780Z,7.6
2023-05-14T04:35:01.386Z,7.3
2023-05-14T04:36:02.439Z,7.2
2023-05-14T04:37:01.012Z,7.3
2023-05-14T04:38:01.103Z,6.8
2023-05-14T04:39:01.507Z,6.7
2023-05-14T04:40:01.119Z,6.8
2023-05-14T04:41:01.522Z,6.9
2023-05-14T04:42:02.095Z,7.1
2023-05-14T04:43:01.153Z,6.9
2023-05-14T04:44:00.827Z,7.3
2023-05-14T04:45:00.484Z,7.2
2023-05-14T04:46:00.268Z,7.6
2023-05-14T04:46:59.928Z,7.4
2023-05-14T04:47:59.893Z,7.5
2023-05-14T04:49:00.148Z,7.7
2023-05-14T04:49:59.894Z,7.5
2023-05-14T04:51:14.098Z,7.7
2023-05-14T04:52:01.082Z,7.7
2023-05-14T04:53:00.770Z,7.9
2023-05-14T04:54:00.581Z,8
2023-05-14T04:55:00.414Z,7.6
2023-05-14T04:56:00.175Z,7.8
2023-05-14T04:57:00.424Z,7.9
2023-05-14T04:58:00.208Z,7.8
2023-05-14T04:59:01.786Z,7.8
2023-05-14T05:00:02.315Z,7.7
2023-05-14T05:01:02.475Z,7.2
2023-05-14T05:02:01.214Z,7.1
2023-05-14T05:03:02.063Z,7
2023-05-14T05:04:04.661Z,7.1
2023-05-14T05:05:01.384Z,7.1
2023-05-14T05:06:01.215Z,7.1
2023-05-14T05:07:02.452Z,7.5
2023-05-14T05:08:01.097Z,7
2023-05-14T05:09:08.453Z,7.2
2023-05-14T05:10:00.842Z,7.4
2023-05-14T05:11:01.020Z,6.9
2023-05-14T05:12:01.026Z,6.8
2023-05-14T05:13:02.067Z,6.4
2023-05-14T05:14:10.778Z,6.6
2023-05-14T05:15:01.746Z,6.4
2023-05-14T05:16:01.985Z,6.8
2023-05-14T05:17:00.861Z,7.3
2023-05-14T05:18:01.245Z,7
2023-05-14T05:19:14.302Z,6.5
2023-05-14T05:20:01.991Z,6.7
2023-05-14T05:21:02.092Z,6.9
2023-05-14T05:22:02.449Z,6.8
2023-05-14T05:23:01.103Z,6.8
2023-05-14T05:24:16.523Z,6.8
2023-05-14T05:25:01.863Z,6.5
2023-05-14T05:26:01.016Z,6.7
2023-05-14T05:27:02.650Z,6.6
2023-05-14T05:28:01.989Z,6.7
2023-05-14T05:29:01.395Z,6.6
2023-05-14T05:30:01.127Z,6.7
2023-05-14T05:31:02.018Z,6.3
2023-05-14T05:32:01.092Z,6
2023-05-14T05:33:01.115Z,5.3
2023-05-14T05:34:01.250Z,5.6
2023-05-14T05:35:00.855Z,5.8
2023-05-14T05:36:01.466Z,5
2023-05-14T05:37:01.055Z,5.1
2023-05-14T05:38:01.762Z,5
2023-05-14T05:39:00.981Z,4.2
2023-05-14T05:40:00.991Z,3.7
2023-05-14T05:41:00.999Z,3.8
2023-05-14T05:42:00.980Z,3.8
2023-05-14T05:43:01.660Z,3.8
2023-05-14T05:44:00.953Z,4
2023-05-14T05:45:01.336Z,2.9
2023-05-14T05:46:01.156Z,2.1
2023-05-14T05:47:01.140Z,2.3
2023-05-14T05:48:02.884Z,1.2
2023-05-14T05:49:01.882Z,1
2023-05-14T05:50:00.715Z,1
2023-05-14T05:51:00.436Z,1
2023-05-14T05:52:00.131Z,1
2023-05-14T05:52:59.722Z,1
2023-05-14T05:54:01.380Z,1
2023-05-14T05:55:01.021Z,1
2023-05-14T05:56:01.026Z,1
2023-05-14T05:57:01.017Z,1.3
2023-05-14T05:58:01.172Z,1.1
2023-05-14T05:59:01.390Z,1
2023-05-14T06:00:01.815Z,1
2023-05-14T06:01:01.102Z,1
2023-05-14T06:02:01.083Z,1
2023-05-14T06:03:01.115Z,1
2023-05-14T06:04:01.090Z,1
2023-05-14T06:05:01.428Z,1
2023-05-14T06:06:02.484Z,1
2023-05-14T06:07:01.038Z,1
2023-05-14T06:08:01.287Z,1
2023-05-14T06:09:00.986Z,1
2023-05-14T06:10:00.660Z,1
2023-05-14T06:11:00.223Z,1
2023-05-14T06:11:59.912Z,1
2023-05-14T06:12:59.651Z,1
2023-05-14T06:14:01.694Z,1
2023-05-14T06:15:01.335Z,1
2023-05-14T06:16:04.034Z,1
2023-05-14T06:17:01.065Z,1
2023-05-14T06:18:01.499Z,1
2023-05-14T06:19:01.886Z,1
2023-05-14T06:20:01.216Z,1
2023-05-14T06:21:01.041Z,1
2023-05-14T06:22:01.054Z,1
2023-05-14T06:23:01.086Z,1
2023-05-14T06:24:01.286Z,1
2023-05-14T06:25:01.072Z,1
2023-05-14T06:26:01.122Z,1
2023-05-14T06:27:01.268Z,1
2023-05-14T06:28:01.732Z,1
2023-05-14T06:29:01.521Z,1
2023-05-14T06:30:00.588Z,1
2023-05-14T06:31:00.270Z,1
2023-05-14T06:31:59.928Z,1
2023-05-14T06:32:59.591Z,1
2023-05-14T06:34:01.341Z,1
2023-05-14T06:35:01.544Z,1
2023-05-14T06:36:02.059Z,1
2023-05-14T06:37:01.311Z,1
2023-05-14T06:38:02.382Z,1
2023-05-14T06:39:02.087Z,1
2023-05-14T06:40:01.964Z,1
2023-05-14T06:41:01.457Z,1
2023-05-14T06:42:02.062Z,1
2023-05-14T06:43:02.123Z,1
2023-05-14T06:44:01.074Z,1
2023-05-14T06:45:01.117Z,1
2023-05-14T06:46:01.100Z,1
2023-05-14T06:47:01.196Z,1
2023-05-14T06:48:01.931Z,1
2023-05-14T06:49:01.987Z,1
2023-05-14T06:50:01.014Z,1
2023-05-14T06:51:01.265Z,1
2023-05-14T06:52:02.359Z,1
2023-05-14T06:53:02.117Z,1
2023-05-14T06:54:01.045Z,1
2023-05-14T06:55:03.845Z,1
2023-05-14T06:56:01.073Z,1
2023-05-14T06:57:01.095Z,1
2023-05-14T06:58:01.204Z,1
2023-05-14T06:59:01.866Z,1
2023-05-14T07:00:06.840Z,1
2023-05-14T07:01:01.041Z,1
2023-05-14T07:02:01.290Z,1
2023-05-14T07:03:01.180Z,1
2023-05-14T07:04:01.127Z,1
2023-05-14T07:05:09.470Z,1
2023-05-14T07:06:01.044Z,1
2023-05-14T07:07:01.021Z,1
2023-05-14T07:08:01.042Z,1
2023-05-14T07:09:01.008Z,1
2023-05-14T07:10:10.209Z,1
2023-05-14T07:11:01.214Z,1
2023-05-14T07:12:01.307Z,1
2023-05-14T07:13:01.447Z,1
2023-05-14T07:14:01.926Z,1
2023-05-14T07:15:12.318Z,1
2023-05-14T07:16:00.619Z,1
2023-05-14T07:17:00.434Z,1
2023-05-14T07:18:00.249Z,1
2023-05-14T07:19:00.031Z,1
2023-05-14T07:20:13.854Z,1
2023-05-14T07:21:02.177Z,1
2023-05-14T07:22:01.165Z,1
2023-05-14T07:23:01.189Z,1
2023-05-14T07:24:01.247Z,1
2023-05-14T07:25:16.942Z,1
2023-05-14T07:26:01.069Z,1
2023-05-14T07:27:01.061Z,1
2023-05-14T07:28:01.565Z,1
2023-05-14T07:29:01.065Z,1
2023-05-14T07:30:00.765Z,1
2023-05-14T07:31:00.666Z,1
2023-05-14T07:32:00.360Z,1
2023-05-14T07:32:59.998Z,1
2023-05-14T07:33:59.677Z,1
2023-05-14T07:35:02.338Z,1
2023-05-14T07:36:01.502Z,1
2023-05-14T07:37:01.249Z,1
2023-05-14T07:38:02.471Z,1
2023-05-14T07:39:03.900Z,1
2023-05-14T07:40:01.034Z,1
2023-05-14T07:41:01.031Z,1
2023-05-14T07:42:01.021Z,1
2023-05-14T07:43:01.261Z,1
2023-05-14T07:44:01.454Z,1
2023-05-14T07:45:01.069Z,1
2023-05-14T07:46:01.141Z,1
2023-05-14T07:47:01.182Z,1
2023-05-14T07:48:01.305Z,1
2023-05-14T07:49:01.108Z,1
2023-05-14T07:50:00.843Z,1
2023-05-14T07:51:01.416Z,1
2023-05-14T07:52:02.569Z,1
2023-05-14T07:53:02.290Z,1
2023-05-14T07:54:01.329Z,1
2023-05-14T07:55:02.269Z,1
2023-05-14T07:56:01.012Z,1
2023-05-14T07:57:01.067Z,1
2023-05-14T07:58:01.041Z,1
2023-05-14T07:59:01.158Z,1
2023-05-14T08:00:01.107Z,1
2023-05-14T08:01:01.505Z,1
2023-05-14T08:02:01.188Z,1
2023-05-14T08:03:01.357Z,1
2023-05-14T08:04:01.920Z,1
2023-05-14T08:05:01.097Z,1
2023-05-14T08:06:01.016Z,1
2023-05-14T08:07:01.117Z,1
2023-05-14T08:08:01.144Z,1
2023-05-14T08:09:01.117Z,1
2023-05-14T08:10:00.824Z,1
2023-05-14T08:11:01.447Z,1
2023-05-14T08:12:01.048Z,1
2023-05-14T08:13:01.049Z,1
2023-05-14T08:14:01.073Z,1
2023-05-14T08:15:01.062Z,1
2023-05-14T08:16:01.112Z,1
2023-05-14T08:17:01.058Z,1
2023-05-14T08:18:01.155Z,1
2023-05-14T08:19:01.182Z,1
2023-05-14T08:20:01.097Z,1
2023-05-14T08:21:03.243Z,1
2023-05-14T08:22:01.349Z,1
2023-05-14T08:23:02.667Z,1
2023-05-14T08:24:02.563Z,1
2023-05-14T08:25:01.553Z,1
2023-05-14T08:26:02.038Z,1
2023-05-14T08:27:01.077Z,1
2023-05-14T08:28:01.042Z,1
2023-05-14T08:29:01.062Z,1
2023-05-14T08:30:01.081Z,1
2023-05-14T08:31:01.743Z,1
2023-05-14T08:32:05.947Z,1
2023-05-14T08:33:01.340Z,1
2023-05-14T08:34:02.465Z,1
2023-05-14T08:35:02.466Z,1
2023-05-14T08:36:02.420Z,1
2023-05-14T08:37:01.113Z,1
2023-05-14T08:38:01.121Z,1
2023-05-14T08:39:01.156Z,1
2023-05-14T08:40:01.549Z,1
2023-05-14T08:41:01.152Z,1
2023-05-14T08:42:01.037Z,1
2023-05-14T08:43:01.053Z,1
2023-05-14T08:44:01.031Z,1
2023-05-14T08:45:01.028Z,1
2023-05-14T08:46:01.772Z,1
2023-05-14T08:47:01.472Z,1
2023-05-14T08:48:01.261Z,1
2023-05-14T08:49:02.134Z,1
2023-05-14T08:50:04.618Z,1
2023-05-14T08:51:03.912Z,1
2023-05-14T08:52:01.692Z,1
2023-05-14T08:53:01.104Z,1
2023-05-14T08:54:01.176Z,1
2023-05-14T08:55:01.180Z,1
2023-05-14T08:56:06.744Z,1
2023-05-14T08:57:01.147Z,1
2023-05-14T08:58:01.781Z,1
2023-05-14T08:59:01.031Z,1
2023-05-14T09:00:01.058Z,1
2023-05-14T09:01:10.555Z,1
2023-05-14T09:02:01.614Z,1
2023-05-14T09:03:01.490Z,1
2023-05-14T09:04:02.086Z,1
2023-05-14T09:05:01.143Z,1
2023-05-14T09:06:13.786Z,1
2023-05-14T09:07:01.836Z,1
2023-05-14T09:08:01.731Z,1
2023-05-14T09:09:01.411Z,1
2023-05-14T09:10:02.551Z,1
2023-05-14T09:11:16.281Z,1
2023-05-14T09:12:01.141Z,1
2023-05-14T09:13:01.040Z,1
2023-05-14T09:14:01.036Z,1
2023-05-14T09:15:01.049Z,1
2023-05-14T09:16:01.054Z,1
2023-05-14T09:17:01.026Z,1
2023-05-14T09:18:01.120Z,1
2023-05-14T09:19:01.214Z,1
2023-05-14T09:20:01.085Z,1
2023-05-14T09:21:01.080Z,1
2023-05-14T09:22:01.404Z,1
2023-05-14T09:23:01.122Z,1
2023-05-14T09:24:01.114Z,1
2023-05-14T09:25:01.197Z,1
2023-05-14T09:26:01.087Z,1
2023-05-14T09:27:01.423Z,1
2023-05-14T09:28:01.143Z,1
2023-05-14T09:29:00.833Z,1
2023-05-14T09:30:00.430Z,1
2023-05-14T09:31:00.061Z,1
2023-05-14T09:31:59.692Z,1
2023-05-14T09:33:02.116Z,1
2023-05-14T09:34:01.725Z,1
2023-05-14T09:35:01.119Z,1
2023-05-14T09:36:01.077Z,1
2023-05-14T09:37:01.023Z,1
2023-05-14T09:38:01.089Z,1
2023-05-14T09:39:01.108Z,1
2023-05-14T09:40:01.110Z,1
2023-05-14T09:41:01.097Z,1
2023-05-14T09:42:01.644Z,1
2023-05-14T09:43:01.230Z,1
2023-05-14T09:44:01.171Z,1
2023-05-14T09:45:01.505Z,1
2023-05-14T09:46:01.154Z,1
2023-05-14T09:47:01.086Z,1
2023-05-14T09:48:01.496Z,1
2023-05-14T09:49:00.845Z,1
2023-05-14T09:50:00.391Z,1
2023-05-14T09:51:00.035Z,1
2023-05-14T09:51:59.686Z,1
2023-05-14T09:53:01.756Z,1
2023-05-14T09:54:01.398Z,1
2023-05-14T09:55:02.109Z,1
2023-05-14T09:56:02.131Z,1
2023-05-14T09:57:01.039Z,1
2023-05-14T09:58:01.120Z,1
2023-05-14T09:59:01.259Z,1
2023-05-14T10:00:01.250Z,1
2023-05-14T10:01:02.753Z,1
2023-05-14T10:02:01.853Z,1
2023-05-14T10:03:01.052Z,1
2023-05-14T10:04:01.094Z,1
2023-05-14T10:05:01.112Z,1
2023-05-14T10:06:01.487Z,1
2023-05-14T10:07:00.753Z,1
2023-05-14T10:08:00.765Z,1
2023-05-14T10:09:00.748Z,1
2023-05-14T10:10:00.769Z,1
2023-05-14T10:11:00.510Z,1
2023-05-14T10:12:00.180Z,1
2023-05-14T10:12:59.866Z,1
2023-05-14T10:13:59.479Z,1
2023-05-14T10:15:02.134Z,1
2023-05-14T10:16:04.717Z,1
2023-05-14T10:17:01.278Z,1
2023-05-14T10:18:01.156Z,1
2023-05-14T10:19:01.510Z,1
2023-05-14T10:20:01.434Z,1
2023-05-14T10:21:01.180Z,1
2023-05-14T10:22:01.251Z,1
2023-05-14T10:23:01.071Z,1
2023-05-14T10:24:01.010Z,1
2023-05-14T10:25:01.016Z,1
2023-05-14T10:26:01.059Z,1
2023-05-14T10:27:01.011Z,1
2023-05-14T10:28:01.026Z,1
2023-05-14T10:29:00.598Z,1
2023-05-14T10:30:00.408Z,1
2023-05-14T10:31:01.737Z,1
2023-05-14T10:32:03.011Z,1
2023-05-14T10:33:01.713Z,1
2023-05-14T10:34:02.712Z,1
2023-05-14T10:35:02.056Z,1
2023-05-14T10:36:01.652Z,1
2023-05-14T10:37:03.981Z,1
2023-05-14T10:38:01.028Z,1
2023-05-14T10:39:01.448Z,1
2023-05-14T10:40:01.084Z,1
2023-05-14T10:41:01.099Z,1
2023-05-14T10:42:08.727Z,1
2023-05-14T10:43:01.090Z,1
2023-05-14T10:44:01.029Z,1
2023-05-14T10:45:01.040Z,1
2023-05-14T10:46:01.118Z,1
2023-05-14T10:47:11.533Z,1
2023-05-14T10:48:01.171Z,1
2023-05-14T10:49:00.935Z,1
2023-05-14T10:50:01.045Z,1
2023-05-14T10:51:01.060Z,1
2023-05-14T10:52:14.533Z,1
2023-05-14T10:53:01.034Z,1
2023-05-14T10:54:01.102Z,1
2023-05-14T10:55:03.468Z,1
2023-05-14T10:56:01.484Z,1
2023-05-14T10:57:01.200Z,1
2023-05-14T10:58:01.095Z,1
2023-05-14T10:59:01.116Z,1
2023-05-14T11:00:01.090Z,1
2023-05-14T11:01:01.952Z,1
2023-05-14T11:02:01.146Z,1
2023-05-14T11:03:01.190Z,1
2023-05-14T11:04:01.882Z,1
2023-05-14T11:05:02.156Z,1
2023-05-14T11:06:01.037Z,1
2023-05-14T11:07:01.046Z,1
2023-05-14T11:08:01.035Z,1
2023-05-14T11:09:00.744Z,1
2023-05-14T11:10:00.342Z,1
2023-05-14T11:10:59.948Z,1
2023-05-14T11:11:59.712Z,1
2023-05-14T11:13:01.737Z,1
2023-05-14T11:14:02.153Z,1
2023-05-14T11:15:01.341Z,1
2023-05-14T11:16:08.765Z,1
2023-05-14T11:17:01.473Z,1
2023-05-14T11:18:01.159Z,1
2023-05-14T11:19:01.193Z,1
2023-05-14T11:20:01.031Z,1
2023-05-14T11:21:01.083Z,1
2023-05-14T11:22:01.078Z,1
2023-05-14T11:23:01.037Z,1
2023-05-14T11:24:01.083Z,1
2023-05-14T11:25:01.321Z,1
2023-05-14T11:26:02.012Z,1
2023-05-14T11:27:01.101Z,1
2023-05-14T11:28:01.095Z,1
2023-05-14T11:29:00.843Z,1
2023-05-14T11:30:00.500Z,1
2023-05-14T11:31:00.210Z,1
2023-05-14T11:31:59.853Z,1
2023-05-14T11:33:02.495Z,1
2023-05-14T11:34:01.229Z,1
2023-05-14T11:35:01.337Z,1
2023-05-14T11:36:01.944Z,1
2023-05-14T11:37:01.906Z,1
2023-05-14T11:38:01.261Z,1
2023-05-14T11:39:00.640Z,1
2023-05-14T11:40:00.351Z,1
2023-05-14T11:41:00.044Z,1
2023-05-14T11:41:59.867Z,1
2023-05-14T11:43:01.591Z,1
2023-05-14T11:44:01.884Z,1
2023-05-14T11:45:01.245Z,1
2023-05-14T11:46:01.210Z,1
2023-05-14T11:47:01.118Z,1
2023-05-14T11:48:01.124Z,1
2023-05-14T11:49:00.987Z,1
2023-05-14T11:50:01.514Z,1
2023-05-14T11:51:01.020Z,1
2023-05-14T11:52:01.034Z,1
2023-05-14T11:53:01.044Z,1
2023-05-14T11:54:01.056Z,1
2023-05-14T11:55:01.056Z,1
2023-05-14T11:56:01.445Z,1
2023-05-14T11:57:01.181Z,1
2023-05-14T11:58:01.080Z,1
2023-05-14T11:59:01.157Z,1
2023-05-14T12:00:01.143Z,1
2023-05-14T12:01:03.358Z,1
2023-05-14T12:02:02.554Z,1
2023-05-14T12:03:01.096Z,1
2023-05-14T12:04:01.615Z,1
2023-05-14T12:05:01.457Z,1
2023-05-14T12:06:01.236Z,1
2023-05-14T12:07:01.131Z,1
2023-05-14T12:08:03.385Z,1
2023-05-14T12:09:00.844Z,1
2023-05-14T12:10:01.068Z,1
2023-05-14T12:11:01.060Z,1
2023-05-14T12:12:01.069Z,1
2023-05-14T12:13:06.172Z,1
2023-05-14T12:14:04.028Z,1
2023-05-14T12:15:01.186Z,1
2023-05-14T12:16:01.115Z,1
2023-05-14T12:17:01.125Z,1
2023-05-14T12:18:23.038Z,1
2023-05-14T12:19:01.129Z,1
2023-05-14T12:20:01.920Z,1
2023-05-14T12:21:01.115Z,1
2023-05-14T12:22:01.349Z,1
2023-05-14T12:23:10.932Z,1
2023-05-14T12:24:01.984Z,1
2023-05-14T12:25:01.050Z,1
2023-05-14T12:26:01.086Z,1
2023-05-14T12:27:01.073Z,1
2023-05-14T12:28:14.825Z,1
2023-05-14T12:29:00.755Z,1
2023-05-14T12:30:13.066Z,1
2023-05-14T12:31:01.668Z,1
2023-05-14T12:32:01.208Z,1
2023-05-14T12:33:16.735Z,1
2023-05-14T12:34:01.744Z,1
2023-05-14T12:35:01.845Z,1
2023-05-14T12:36:07.365Z,1
2023-05-14T12:37:01.122Z,1
2023-05-14T12:38:01.026Z,1
2023-05-14T12:39:01.137Z,1
2023-05-14T12:40:01.484Z,1
2023-05-14T12:41:01.289Z,1
2023-05-14T12:42:01.053Z,1
2023-05-14T12:43:01.050Z,1
2023-05-14T12:44:01.121Z,1
2023-05-14T12:45:01.070Z,1
2023-05-14T12:46:01.033Z,1
2023-05-14T12:47:01.155Z,1
2023-05-14T12:48:01.141Z,1
2023-05-14T12:49:00.891Z,1
2023-05-14T12:50:01.503Z,1
2023-05-14T12:51:01.231Z,1
2023-05-14T12:52:17.337Z,1
2023-05-14T12:53:01.141Z,1
2023-05-14T12:54:01.052Z,1
2023-05-14T12:55:01.021Z,1
2023-05-14T12:56:01.063Z,1
2023-05-14T12:57:01.053Z,1
2023-05-14T12:58:01.055Z,1
2023-05-14T12:59:01.086Z,1
2023-05-14T13:00:01.217Z,1
2023-05-14T13:01:01.639Z,1
2023-05-14T13:02:01.081Z,1
2023-05-14T13:03:01.143Z,1
2023-05-14T13:04:01.157Z,1
2023-05-14T13:05:01.117Z,1
2023-05-14T13:06:01.413Z,1
2023-05-14T13:07:01.131Z,1
2023-05-14T13:08:01.235Z,1
2023-05-14T13:09:00.839Z,1
2023-05-14T13:10:02.686Z,1
2023-05-14T13:11:01.371Z,1
2023-05-14T13:12:02.074Z,1
2023-05-14T13:13:01.054Z,1
2023-05-14T13:14:01.202Z,1
2023-05-14T13:15:01.498Z,1
2023-05-14T13:16:01.390Z,1
2023-05-14T13:17:01.196Z,1
2023-05-14T13:18:01.167Z,1
2023-05-14T13:19:01.168Z,1
2023-05-14T13:20:01.093Z,1
2023-05-14T13:21:01.108Z,1
2023-05-14T13:22:01.108Z,1
2023-05-14T13:23:01.132Z,1
2023-05-14T13:24:01.520Z,1
2023-05-14T13:25:01.030Z,1
2023-05-14T13:26:01.053Z,1
2023-05-14T13:27:01.065Z,1
2023-05-14T13:28:01.082Z,1
2023-05-14T13:29:00.674Z,1
2023-05-14T13:30:00.434Z,1
2023-05-14T13:31:00.084Z,1
2023-05-14T13:31:59.734Z,1
2023-05-14T13:33:01.863Z,1
2023-05-14T13:34:01.519Z,1
2023-05-14T13:35:01.106Z,1
2023-05-14T13:36:01.102Z,1
2023-05-14T13:37:01.114Z,1
2023-05-14T13:38:01.754Z,1
2023-05-14T13:39:01.039Z,1
2023-05-14T13:40:01.277Z,1
2023-05-14T13:41:02.508Z,1
2023-05-14T13:42:01.362Z,1
2023-05-14T13:43:02.058Z,1
2023-05-14T13:44:02.058Z,1
2023-05-14T13:45:01.090Z,1
2023-05-14T13:46:01.191Z,1
2023-05-14T13:47:01.079Z,1
2023-05-14T13:48:01.108Z,1
2023-05-14T13:49:00.767Z,1
2023-05-14T13:50:00.594Z,1
2023-05-14T13:51:00.179Z,1
2023-05-14T13:51:59.866Z,1
2023-05-14T13:53:09.156Z,1
2023-05-14T13:54:04.149Z,1
2023-05-14T13:55:01.142Z,1
2023-05-14T13:56:01.682Z,1
2023-05-14T13:57:01.413Z,1
2023-05-14T13:58:02.104Z,1
2023-05-14T13:59:08.244Z,1
2023-05-14T14:00:01.062Z,1
2023-05-14T14:01:01.232Z,1
2023-05-14T14:02:01.107Z,1
2023-05-14T14:03:01.223Z,1
2023-05-14T14:04:11.889Z,1
2023-05-14T14:05:01.107Z,1
2023-05-14T14:06:00.682Z,1
2023-05-14T14:07:00.372Z,1
2023-05-14T14:08:04.497Z,1
2023-05-14T14:09:15.479Z,1
2023-05-14T14:10:00.699Z,1
2023-05-14T14:11:00.316Z,1
2023-05-14T14:12:00.037Z,1
2023-05-14T14:12:59.684Z,1
2023-05-14T14:14:16.786Z,1
2023-05-14T14:15:01.345Z,1
2023-05-14T14:16:02.536Z,1
2023-05-14T14:17:01.072Z,1
2023-05-14T14:18:01.128Z,1
2023-05-14T14:19:01.145Z,1
2023-05-14T14:20:01.335Z,1
2023-05-14T14:21:01.202Z,1
2023-05-14T14:22:01.118Z,1
2023-05-14T14:23:01.088Z,1